createdAt,value
2022-08-10T00:00:51.771Z,101497.94
2022-08-10T00:03:20.596Z,101493.50
2022-08-10T00:05:53.678Z,101490.38
2022-08-10T00:08:23.729Z,101490.63
2022-08-10T00:10:53.093Z,101493.97
2022-08-10T00:13:20.842Z,101496.44
2022-08-10T00:15:54.190Z,101485.31
2022-08-10T00:18:34.449Z,101482.19
2022-08-10T00:21:04.326Z,101470.84
2022-08-10T00:23:31.969Z,101444.84
2022-08-10T00:25:59.506Z,101476.28
2022-08-10T00:28:30.386Z,101467.25
2022-08-10T00:30:58.083Z,101469.72
2022-08-10T00:33:26.897Z,101456.16
2022-08-10T00:35:54.434Z,101464.75
2022-08-10T00:38:22.101Z,101464.84
2022-08-10T00:40:51.434Z,101457.88
2022-08-10T00:43:23.495Z,101450.31
2022-08-10T00:45:59.824Z,101443.72
2022-08-10T00:48:31.617Z,101433.63
2022-08-10T00:51:00.107Z,101421.13
2022-08-10T00:53:28.029Z,101423.59
2022-08-10T00:57:16.651Z,101418.44
2022-08-10T00:58:47.027Z,101423.00
2022-08-10T01:02:07.778Z,101430.38
2022-08-10T01:04:58.606Z,101428.94
2022-08-10T01:07:04.562Z,101423.25
2022-08-10T01:09:41.685Z,101422.22
2022-08-10T01:12:40.869Z,101410.81
2022-08-10T01:15:05.274Z,101416.56
2022-08-10T01:17:49.888Z,101410.69
2022-08-10T01:20:31.192Z,101415.16
2022-08-10T01:23:26.468Z,101410.69
2022-08-10T01:26:30.501Z,101402.06
2022-08-10T01:29:17.358Z,101384.22
2022-08-10T01:31:52.184Z,101378.47
2022-08-10T01:34:23.579Z,101380.28
2022-08-10T01:36:56.728Z,101378.66
2022-08-10T01:39:26.835Z,101376.00
2022-08-10T01:41:58.093Z,101374.38
2022-08-10T01:44:30.593Z,101373.78
2022-08-10T01:47:22.466Z,101359.16
2022-08-10T01:49:57.188Z,101375.78
2022-08-10T01:52:28.406Z,101375.38
2022-08-10T01:54:57.644Z,101388.47
2022-08-10T01:57:28.625Z,101395.25
2022-08-10T02:00:02.277Z,101401.59
2022-08-10T02:02:34.626Z,101403.69
2022-08-10T02:05:05.291Z,101395.91
2022-08-10T02:07:37.752Z,101407.19
2022-08-10T02:10:10.994Z,101391.00
2022-08-10T02:12:40.654Z,101394.69
2022-08-10T02:15:12.535Z,101398.16
2022-08-10T02:17:59.385Z,101390.78
2022-08-10T02:20:34.530Z,101404.53
2022-08-10T02:23:06.307Z,101401.88
2022-08-10T02:25:42.642Z,101412.72
2022-08-10T02:28:30.046Z,101411.94
2022-08-10T02:31:02.110Z,101399.84
2022-08-10T02:33:37.381Z,101403.53
2022-08-10T02:36:09.872Z,101395.91
2022-08-10T02:38:58.597Z,101409.03
2022-08-10T02:45:01.158Z,101402.25
2022-08-10T02:45:18.407Z,101411.09
2022-08-10T02:47:21.623Z,101409.44
2022-08-10T02:49:54.949Z,101401.03
2022-08-10T02:52:30.595Z,101411.09
2022-08-10T02:55:18.345Z,101399.41
2022-08-10T02:58:15.255Z,101413.13
2022-08-10T03:00:45.582Z,101411.69
2022-08-10T03:03:24.748Z,101408.63
2022-08-10T03:06:00.153Z,101410.06
2022-08-10T03:08:34.860Z,101407.81
2022-08-10T03:11:05.894Z,101414.31
2022-08-10T03:13:35.418Z,101414.28
2022-08-10T03:16:04.705Z,101417.47
2022-08-10T03:18:34.622Z,101412.78
2022-08-10T03:21:06.015Z,101419.16
2022-08-10T03:23:39.283Z,101410.38
2022-08-10T03:26:08.860Z,101408.97
2022-08-10T03:28:37.575Z,101410.63
2022-08-10T03:31:05.538Z,101406.28
2022-08-10T03:33:35.041Z,101410.72
2022-08-10T03:36:41.229Z,101412.72
2022-08-10T03:38:54.137Z,101412.53
2022-08-10T03:41:29.729Z,101418.09
2022-08-10T03:44:05.015Z,101411.97
2022-08-10T03:46:36.091Z,101415.44
2022-08-10T03:49:05.467Z,101420.13
2022-08-10T03:51:36.016Z,101416.09
2022-08-10T03:54:07.395Z,101414.66
2022-08-10T03:56:37.889Z,101418.38
2022-08-10T03:59:09.033Z,101410.81
2022-08-10T04:02:44.857Z,101395.25
2022-08-10T04:04:25.627Z,101413.88
2022-08-10T04:06:57.026Z,101421.47
2022-08-10T04:09:42.905Z,101413.88
2022-08-10T04:12:14.805Z,101423.94
2022-08-10T04:14:49.574Z,101420.88
2022-08-10T04:18:04.194Z,101423.31
2022-08-10T04:20:11.663Z,101423.97
2022-08-10T04:22:42.507Z,101429.66
2022-08-10T04:25:13.637Z,101420.66
2022-08-10T04:27:41.453Z,101434.59
2022-08-10T04:30:10.692Z,101435.47
2022-08-10T04:32:39.186Z,101431.19
2022-08-10T04:35:10.685Z,101429.34
2022-08-10T04:37:46.858Z,101434.03
2022-08-10T04:40:28.279Z,101433.44
2022-08-10T04:43:02.345Z,101433.44
2022-08-10T04:45:48.932Z,101435.50
2022-08-10T04:48:43.428Z,101431.59
2022-08-10T04:51:11.098Z,101434.28
2022-08-10T04:54:04.864Z,101437.75
2022-08-10T04:56:36.587Z,101432.97
2022-08-10T04:59:06.325Z,101434.34
2022-08-10T05:02:09.958Z,101431.59
2022-08-10T05:04:38.457Z,101425.38
2022-08-10T05:07:16.417Z,101435.28
2022-08-10T05:10:01.227Z,101434.63
2022-08-10T05:12:31.499Z,101440.50
2022-08-10T05:14:59.543Z,101454.81
2022-08-10T05:17:27.202Z,101456.88
2022-08-10T05:20:02.214Z,101469.53
2022-08-10T05:22:33.051Z,101485.69
2022-08-10T05:25:01.950Z,101498.84
2022-08-10T05:27:29.754Z,101515.72
2022-08-10T05:30:01.324Z,101534.91
2022-08-10T05:32:30.892Z,101555.66
2022-08-10T05:34:58.896Z,101572.22
2022-08-10T05:38:08.860Z,101595.59
2022-08-10T05:40:16.060Z,101614.81
2022-08-10T05:42:43.742Z,101641.84
2022-08-10T05:45:20.921Z,101667.28
2022-08-10T05:48:56.966Z,101686.13
2022-08-10T05:50:37.193Z,101708.00
2022-08-10T05:53:59.903Z,101718.28
2022-08-10T05:55:55.607Z,101734.28
2022-08-10T05:58:23.676Z,101759.09
2022-08-10T06:00:54.624Z,101775.09
2022-08-10T06:03:28.065Z,101778.59
2022-08-10T06:05:57.978Z,101780.03
2022-08-10T06:08:32.327Z,101779.84
2022-08-10T06:12:26.612Z,101781.97
2022-08-10T06:14:16.010Z,101788.25
2022-08-10T06:16:46.585Z,101787.81
2022-08-10T06:19:14.867Z,101791.75
2022-08-10T06:22:00.690Z,101815.00
2022-08-10T06:24:31.201Z,101830.59
2022-08-10T06:27:02.031Z,101866.41
2022-08-10T06:29:32.648Z,101904.75
2022-08-10T06:32:02.342Z,101927.75
2022-08-10T06:34:34.393Z,101954.69
2022-08-10T06:37:05.340Z,101963.03
2022-08-10T06:39:35.226Z,101973.69
2022-08-10T06:42:15.892Z,101992.31
2022-08-10T06:44:58.893Z,102014.66
2022-08-10T06:47:31.385Z,102025.28
2022-08-10T06:50:09.253Z,102039.09
2022-08-10T06:52:38.689Z,102047.53
2022-08-10T06:55:11.228Z,102049.22
2022-08-10T06:57:41.479Z,101967.69
2022-08-10T07:00:11.088Z,101859.97
2022-08-10T07:02:47.767Z,101799.59
2022-08-10T07:05:20.193Z,101756.50
2022-08-10T07:07:49.450Z,101752.66
2022-08-10T07:10:20.697Z,101732.69
2022-08-10T07:12:52.420Z,101698.56
2022-08-10T07:15:21.817Z,101674.44
2022-08-10T07:17:52.137Z,101647.28
2022-08-10T07:20:21.631Z,101618.00
2022-08-10T07:23:53.842Z,101417.03
2022-08-10T07:25:43.345Z,101283.69
2022-08-10T07:28:14.109Z,101139.53
2022-08-10T07:30:43.465Z,101073.28
2022-08-10T07:33:15.602Z,101012.84
2022-08-10T07:35:44.281Z,101006.28
2022-08-10T07:38:17.221Z,101030.56
2022-08-10T07:40:46.873Z,101043.69
2022-08-10T07:43:20.883Z,101040.72
2022-08-10T07:45:49.650Z,101044.31
2022-08-10T07:48:23.845Z,101054.84
2022-08-10T07:50:55.303Z,101041.81
2022-08-10T07:53:27.851Z,101029.81
2022-08-10T07:56:03.554Z,101029.28
2022-08-10T07:58:52.437Z,101041.47
2022-08-10T08:01:24.163Z,101049.56
2022-08-10T08:04:10.682Z,101048.78
2022-08-10T08:06:41.373Z,101043.09
2022-08-10T08:09:09.621Z,101016.34
2022-08-10T08:11:38.998Z,100983.84
2022-08-10T08:14:11.223Z,101008.97
2022-08-10T08:16:43.581Z,101022.59
2022-08-10T08:19:32.821Z,101017.63
2022-08-10T08:24:11.139Z,100997.91
2022-08-10T08:24:52.095Z,100983.16
2022-08-10T08:27:20.934Z,101007.59
2022-08-10T08:29:51.679Z,101024.19
2022-08-10T08:32:22.489Z,101015.31
2022-08-10T08:34:54.747Z,101052.72
2022-08-10T08:38:33.127Z,101105.31
2022-08-10T08:40:17.721Z,101169.47
2022-08-10T08:43:24.729Z,101208.78
2022-08-10T08:46:21.378Z,101226.69
2022-08-10T08:49:10.640Z,101262.16
2022-08-10T08:52:09.443Z,101273.28
2022-08-10T08:54:46.915Z,101303.72
2022-08-10T08:57:49.560Z,101314.13
2022-08-10T09:00:20.902Z,101331.25
2022-08-10T09:03:11.885Z,101333.00
2022-08-10T09:05:58.607Z,101335.81
2022-08-10T09:08:58.673Z,101352.06
2022-08-10T09:11:39.708Z,101354.63
2022-08-10T09:14:12.429Z,101357.38
2022-08-10T09:16:48.898Z,101358.03
2022-08-10T09:19:36.672Z,101352.06
2022-08-10T09:22:18.913Z,101371.28
2022-08-10T09:24:52.500Z,101369.16
2022-08-10T09:27:23.047Z,101369.88
2022-08-10T09:29:55.953Z,101372.38
2022-08-10T09:36:16.445Z,101368.88
2022-08-10T09:36:28.988Z,101378.41
2022-08-10T09:38:34.884Z,101386.47
2022-08-10T09:41:17.383Z,101385.75
2022-08-10T09:43:51.521Z,101385.84
2022-08-10T09:46:33.454Z,101383.00
2022-08-10T09:49:06.720Z,101380.81
2022-08-10T09:51:47.591Z,101371.81
2022-08-10T09:54:28.000Z,101369.25
2022-08-10T09:57:43.317Z,101362.63
2022-08-10T10:00:06.283Z,101372.94
2022-08-10T10:02:43.393Z,101365.16
2022-08-10T10:05:25.260Z,101357.63
2022-08-10T10:08:01.815Z,101357.16
2022-08-10T10:10:37.073Z,101346.69
2022-08-10T10:14:02.112Z,101347.16
2022-08-10T10:16:27.068Z,101354.06
2022-08-10T10:19:05.926Z,101341.50
2022-08-10T10:21:54.409Z,101338.03
2022-08-10T10:24:34.050Z,101343.84
2022-08-10T10:27:16.539Z,101341.03
2022-08-10T10:29:58.393Z,101333.06
2022-08-10T10:32:37.244Z,101335.13
2022-08-10T10:35:15.064Z,101327.38
2022-08-10T10:38:01.275Z,101328.16
2022-08-10T10:40:40.319Z,101319.06
2022-08-10T10:43:17.209Z,101318.84
2022-08-10T10:45:54.758Z,101315.28
2022-08-10T10:48:29.625Z,101320.09
2022-08-10T10:51:08.440Z,101318.00
2022-08-10T10:53:47.669Z,101323.63
2022-08-10T10:56:29.468Z,101319.13
2022-08-10T10:59:15.996Z,101317.81
2022-08-10T11:02:08.164Z,101313.06
2022-08-10T11:04:44.758Z,101312.28
2022-08-10T11:07:23.629Z,101306.28
2022-08-10T11:10:04.593Z,101304.72
2022-08-10T11:14:24.454Z,101297.06
2022-08-10T11:16:05.481Z,101292.44
2022-08-10T11:18:52.060Z,101287.25
2022-08-10T11:21:30.020Z,101296.69
2022-08-10T11:24:46.751Z,101303.09
2022-08-10T11:26:57.744Z,101304.81
2022-08-10T11:29:35.800Z,101294.44
2022-08-10T11:32:07.921Z,101294.47
2022-08-10T11:35:11.257Z,101298.06
2022-08-10T11:38:31.303Z,101297.13
2022-08-10T11:40:43.507Z,101292.06
2022-08-10T11:43:21.185Z,101286.00
2022-08-10T11:45:55.890Z,101270.88
2022-08-10T11:48:53.210Z,101293.13
2022-08-10T11:51:26.381Z,101297.13
2022-08-10T11:54:00.563Z,101283.28
2022-08-10T11:56:34.613Z,101286.09
2022-08-10T11:59:20.153Z,101281.63
2022-08-10T12:01:53.449Z,101282.13
2022-08-10T12:04:23.905Z,101283.63
2022-08-10T12:06:55.791Z,101273.69
2022-08-10T12:10:06.868Z,101266.13
2022-08-10T12:12:15.601Z,101266.56
2022-08-10T12:14:49.785Z,101265.47
2022-08-10T12:17:26.260Z,101261.59
2022-08-10T12:20:04.066Z,101255.09
2022-08-10T12:22:39.163Z,101249.56
2022-08-10T12:25:11.339Z,101247.75
2022-08-10T12:28:06.553Z,101240.59
2022-08-10T12:30:40.192Z,101243.66
2022-08-10T12:33:19.827Z,101233.63
2022-08-10T12:36:16.824Z,101234.50
2022-08-10T12:38:50.309Z,101230.25
2022-08-10T12:41:45.053Z,101229.09
2022-08-10T12:44:15.770Z,101230.38
2022-08-10T12:46:55.876Z,101228.78
2022-08-10T12:49:31.330Z,101226.13
2022-08-10T12:52:04.679Z,101223.63
2022-08-10T12:54:37.412Z,101220.25
2022-08-10T12:57:10.164Z,101208.00
2022-08-10T12:59:43.802Z,101207.56
2022-08-10T13:02:15.333Z,101203.38
2022-08-10T13:04:48.832Z,101201.94
2022-08-10T13:08:24.747Z,101186.66
2022-08-10T13:10:15.959Z,101186.59
2022-08-10T13:12:46.835Z,101183.44
2022-08-10T13:15:45.516Z,101177.59
2022-08-10T13:18:17.846Z,101169.53
2022-08-10T13:20:51.927Z,101174.19
2022-08-10T13:23:23.743Z,101167.53
2022-08-10T13:25:53.793Z,101164.09
2022-08-10T13:28:35.946Z,101182.72
2022-08-10T13:31:16.557Z,101170.69
2022-08-10T13:34:40.261Z,101164.13
2022-08-10T13:36:40.313Z,101166.84
2022-08-10T13:39:09.722Z,101163.22
2022-08-10T13:41:41.574Z,101164.28
2022-08-10T13:44:13.896Z,101157.28
2022-08-10T13:46:43.560Z,101162.50
2022-08-10T13:49:15.069Z,101148.34
2022-08-10T13:51:57.245Z,101160.38
2022-08-10T13:54:29.074Z,101155.19
2022-08-10T13:56:57.807Z,101159.09
2022-08-10T14:00:35.374Z,101143.06
2022-08-10T14:02:25.018Z,101136.28
2022-08-10T14:04:55.684Z,101142.75
2022-08-10T14:07:29.508Z,101131.56
2022-08-10T14:10:06.945Z,101135.88
2022-08-10T14:12:38.059Z,101136.75
2022-08-10T14:15:09.516Z,101131.28
2022-08-10T14:17:44.596Z,101125.69
2022-08-10T14:20:19.341Z,101123.00
2022-08-10T14:22:51.168Z,101134.56
2022-08-10T14:25:20.341Z,101119.16
2022-08-10T14:28:02.820Z,101112.06
2022-08-10T14:30:33.433Z,101118.66
2022-08-10T14:33:04.673Z,101114.03
2022-08-10T14:36:19.682Z,101110.25
2022-08-10T14:38:31.550Z,101105.72
2022-08-10T14:41:02.369Z,101107.44
2022-08-10T14:43:35.632Z,101104.63
2022-08-10T14:46:08.874Z,101101.00
2022-08-10T14:48:41.646Z,101100.22
2022-08-10T14:51:15.825Z,101099.81
2022-08-10T14:53:53.170Z,101105.44
2022-08-10T14:56:28.433Z,101103.47
2022-08-10T14:59:07.677Z,101099.50
2022-08-10T15:02:37.772Z,101103.03
2022-08-10T15:04:29.278Z,101095.19
2022-08-10T15:07:01.326Z,101089.72
2022-08-10T15:10:01.462Z,101093.72
2022-08-10T15:12:33.031Z,101095.38
2022-08-10T15:15:02.437Z,101089.03
2022-08-10T15:17:36.311Z,101081.91
2022-08-10T15:20:13.407Z,101093.81
2022-08-10T15:22:50.321Z,101094.81
2022-08-10T15:25:24.187Z,101092.75
2022-08-10T15:27:57.391Z,101087.16
2022-08-10T15:30:31.575Z,101086.00
2022-08-10T15:33:21.303Z,101082.34
2022-08-10T15:36:28.037Z,101076.00
2022-08-10T15:39:01.931Z,101066.41
2022-08-10T15:41:58.660Z,101063.91
2022-08-10T15:44:41.162Z,101059.72
2022-08-10T15:47:15.121Z,101065.66
2022-08-10T15:49:49.246Z,101057.00
2022-08-10T15:52:39.284Z,101063.75
2022-08-10T15:55:43.647Z,101064.13
2022-08-10T15:58:11.847Z,101060.97
2022-08-10T16:00:46.854Z,101067.44
2022-08-10T16:03:18.276Z,101064.84
2022-08-10T16:06:01.501Z,101060.09
2022-08-10T16:08:56.075Z,101064.25
2022-08-10T16:11:37.962Z,101055.31
2022-08-10T16:14:20.032Z,101059.94
2022-08-10T16:16:51.475Z,101065.03
2022-08-10T16:19:25.013Z,101058.94
2022-08-10T16:21:59.073Z,101052.84
2022-08-10T16:24:31.117Z,101045.81
2022-08-10T16:27:01.715Z,101058.53
2022-08-10T16:29:33.224Z,101050.78
2022-08-10T16:32:22.450Z,101065.78
2022-08-10T16:34:53.214Z,101056.59
2022-08-10T16:37:22.565Z,101059.22
2022-08-10T16:39:59.314Z,101050.63
2022-08-10T16:42:32.381Z,101050.69
2022-08-10T16:45:06.340Z,101060.63
2022-08-10T16:47:37.229Z,101049.16
2022-08-10T16:50:10.349Z,101042.69
2022-08-10T16:52:42.323Z,101047.47
2022-08-10T16:55:23.888Z,101041.47
2022-08-10T16:58:05.911Z,101043.56
2022-08-10T17:00:37.150Z,101042.69
2022-08-10T17:03:22.896Z,101038.03
2022-08-10T17:06:11.236Z,101040.84
2022-08-10T17:08:48.748Z,101039.88
2022-08-10T17:11:18.107Z,101047.19
2022-08-10T17:13:46.573Z,101040.00
2022-08-10T17:16:18.433Z,101047.13
2022-08-10T17:18:47.967Z,101039.59
2022-08-10T17:21:20.550Z,101055.16
2022-08-10T17:23:52.117Z,101050.41
2022-08-10T17:26:35.259Z,101059.84
2022-08-10T17:29:53.558Z,101062.06
2022-08-10T17:32:06.467Z,101053.31
2022-08-10T17:34:39.401Z,101053.84
2022-08-10T17:37:16.862Z,101043.88
2022-08-10T17:39:50.947Z,101041.88
2022-08-10T17:42:21.875Z,101032.69
2022-08-10T17:44:52.013Z,101023.41
2022-08-10T17:47:27.306Z,101012.03
2022-08-10T17:49:57.362Z,101028.19
2022-08-10T17:52:28.807Z,101028.50
2022-08-10T17:55:00.634Z,101032.19
2022-08-10T17:57:29.839Z,101024.97
2022-08-10T18:00:03.054Z,101024.03
2022-08-10T18:02:37.307Z,101036.78
2022-08-10T18:05:09.133Z,101037.81
2022-08-10T18:07:39.734Z,101028.50
2022-08-10T18:10:12.269Z,101043.88
2022-08-10T18:12:43.804Z,101041.94
2022-08-10T18:15:15.753Z,101040.75
2022-08-10T18:17:50.540Z,101034.53
2022-08-10T18:20:28.191Z,101045.53
2022-08-10T18:22:58.376Z,101041.91
2022-08-10T18:25:45.221Z,101042.94
2022-08-10T18:28:18.977Z,101032.41
2022-08-10T18:30:50.377Z,101018.22
2022-08-10T18:33:27.162Z,101005.03
2022-08-10T18:35:56.433Z,100989.25
2022-08-10T18:38:28.252Z,100986.13
2022-08-10T18:41:00.424Z,100972.47
2022-08-10T18:44:11.550Z,100949.97
2022-08-10T18:46:31.077Z,100940.59
2022-08-10T18:49:06.242Z,100935.28
2022-08-10T18:51:46.773Z,100908.44
2022-08-10T18:54:39.584Z,100877.66
2022-08-10T18:57:13.889Z,100878.38
2022-08-10T19:00:03.693Z,100873.25
2022-08-10T19:02:49.624Z,100856.22
2022-08-10T19:05:32.455Z,100841.22
2022-08-10T19:08:31.142Z,100828.34
2022-08-10T19:11:04.225Z,100813.34
2022-08-10T19:13:37.831Z,100810.03
2022-08-10T19:16:15.908Z,100796.06
2022-08-10T19:18:58.895Z,100794.78
2022-08-10T19:21:36.249Z,100784.06
2022-08-10T19:24:10.666Z,100779.31
2022-08-10T19:26:47.336Z,100764.94
2022-08-10T19:30:09.252Z,100708.66
2022-08-10T19:32:29.670Z,100708.13
2022-08-10T19:35:08.634Z,100691.91
2022-08-10T19:37:56.396Z,100649.31
2022-08-10T19:40:46.243Z,100636.06
2022-08-10T19:43:30.895Z,100589.88
2022-08-10T19:46:15.521Z,100547.13
2022-08-10T19:48:49.156Z,100518.59
2022-08-10T19:51:21.188Z,100505.28
2022-08-10T19:53:57.744Z,100474.41
2022-08-10T19:56:35.292Z,100441.50
2022-08-10T19:59:11.481Z,100412.16
2022-08-10T20:01:54.953Z,100391.13
2022-08-10T20:04:31.734Z,100373.47
2022-08-10T20:07:10.568Z,100359.13
2022-08-10T20:09:47.231Z,100342.28
2022-08-10T20:12:24.232Z,100322.31
2022-08-10T20:15:01.790Z,100326.88
2022-08-10T20:17:51.676Z,100295.31
2022-08-10T20:20:30.980Z,100326.13
2022-08-10T20:23:09.701Z,100335.13
2022-08-10T20:25:39.761Z,100354.06
2022-08-10T20:28:18.303Z,100633.19
2022-08-10T20:30:53.425Z,100532.13
2022-08-10T20:33:28.356Z,100368.47
2022-08-10T20:36:02.600Z,100250.06
2022-08-10T20:38:34.850Z,100182.81
2022-08-10T20:41:25.158Z,100100.00
2022-08-10T20:44:03.997Z,100047.25
2022-08-10T20:46:38.951Z,100029.75
2022-08-10T20:49:20.828Z,100021.91
2022-08-10T20:51:59.199Z,100013.59
2022-08-10T20:54:32.705Z,99999.72
2022-08-10T20:57:55.683Z,100298.28
2022-08-10T21:00:12.790Z,100302.03
2022-08-10T21:02:54.839Z,100300.16
2022-08-10T21:05:31.253Z,100302.88
2022-08-10T21:08:12.139Z,100284.31
2022-08-10T21:10:53.217Z,100291.84
2022-08-10T21:13:37.304Z,100267.59
2022-08-10T21:16:21.530Z,100372.94
2022-08-10T21:19:02.814Z,101367.72
2022-08-10T21:24:40.068Z,101420.41
2022-08-10T21:27:22.498Z,101421.91
2022-08-10T21:30:09.021Z,101428.91
2022-08-10T21:32:50.639Z,101449.78
2022-08-10T21:35:38.347Z,101443.66
2022-08-10T21:38:24.127Z,101431.84
2022-08-10T21:41:18.257Z,101504.19
2022-08-10T21:44:17.428Z,101555.72
2022-08-10T21:47:27.172Z,101539.28
2022-08-10T21:50:27.652Z,101505.59
2022-08-10T21:53:20.611Z,101477.69
2022-08-10T21:56:31.426Z,101480.09
2022-08-10T21:59:22.265Z,101470.72
2022-08-10T22:02:13.778Z,101450.06
2022-08-10T22:04:59.324Z,101427.78
2022-08-10T22:07:46.978Z,101419.13
2022-08-10T22:10:37.282Z,101417.28
2022-08-10T22:13:25.169Z,101405.59
2022-08-10T22:16:13.651Z,101403.25
2022-08-10T22:19:03.526Z,101403.63
2022-08-10T22:22:04.518Z,101399.41
2022-08-10T22:25:16.873Z,101408.00
2022-08-10T22:28:07.324Z,101406.59
2022-08-10T22:31:27.039Z,101412.31
2022-08-10T22:34:38.652Z,101374.53
2022-08-10T22:37:41.727Z,101367.88
2022-08-10T22:40:34.155Z,101367.53
2022-08-10T22:43:36.377Z,101350.69
2022-08-10T22:46:25.570Z,101346.03
2022-08-10T22:49:01.368Z,101324.72
2022-08-10T22:51:39.241Z,101301.03
2022-08-10T22:54:34.433Z,101312.00
2022-08-10T22:57:21.198Z,101309.94
2022-08-10T22:59:50.341Z,101312.22
2022-08-10T23:02:29.420Z,101300.91
2022-08-10T23:05:00.027Z,101295.38
2022-08-10T23:07:33.114Z,101280.28
2022-08-10T23:10:02.269Z,101271.31
2022-08-10T23:12:36.700Z,101265.16
2022-08-10T23:15:25.440Z,101266.50
2022-08-10T23:18:14.271Z,101259.44
2022-08-10T23:20:44.359Z,101243.19
2022-08-10T23:23:24.043Z,101230.69
2022-08-10T23:25:58.335Z,101234.59
2022-08-10T23:28:58.388Z,101240.34
2022-08-10T23:31:17.638Z,101240.53
2022-08-10T23:34:06.757Z,101234.09
2022-08-10T23:36:38.145Z,101239.19
2022-08-10T23:39:27.276Z,101235.81
2022-08-10T23:42:03.278Z,101227.66
2022-08-10T23:44:38.198Z,101231.59
2022-08-10T23:47:10.313Z,101228.63
2022-08-10T23:49:40.089Z,101222.81
2022-08-10T23:52:14.405Z,101211.72
2022-08-10T23:54:48.455Z,101174.91
2022-08-10T23:57:19.667Z,101164.28
2022-08-10T23:59:53.934Z,101155.19
